Time;durP1;ratioP1;P1;durP2;ratioP2;P2;SDS_P1;SDS_P2;PMS_P1;PMS_P2;Temp;Humidity;BMP_temperature;BMP_pressure;BME280_temperature;BME280_humidity;BME280_pressure;Samples;Min_cycle;Max_cycle;Signal;HPM_P1;HPM_P2
2021/09/20 00:00:36;;;;;;;2.77;1.60;;;12.50;99.90;;;;;;5046394;28;20202;-50
2021/09/20 00:03:03;;;;;;;1.67;1.40;;;12.50;99.90;;;;;;5065411;28;20667;-47
2021/09/20 00:05:29;;;;;;;2.47;1.73;;;12.50;99.90;;;;;;5057975;28;20195;-50
2021/09/20 00:07:56;;;;;;;3.43;1.50;;;12.50;99.90;;;;;;5070697;28;20222;-49
2021/09/20 00:10:23;;;;;;;2.23;1.63;;;12.50;99.90;;;;;;5062992;28;20612;-57
2021/09/20 00:12:50;;;;;;;4.17;1.40;;;12.50;99.90;;;;;;5064828;28;20215;-47
2021/09/20 00:15:17;;;;;;;1.50;1.37;;;12.50;99.90;;;;;;5058253;28;20202;-58
2021/09/20 00:17:45;;;;;;;2.13;1.60;;;12.50;99.90;;;;;;5070282;28;20213;-50
2021/09/20 00:20:13;;;;;;;3.83;1.60;;;12.50;99.90;;;;;;5073951;28;20964;-56
2021/09/20 00:22:40;;;;;;;4.00;1.70;;;12.50;99.90;;;;;;5057345;28;20199;-47
2021/09/20 00:25:08;;;;;;;2.77;1.93;;;12.40;99.90;;;;;;5065488;28;20210;-54
2021/09/20 00:27:35;;;;;;;4.37;1.73;;;12.50;99.90;;;;;;5061400;28;20214;-51
2021/09/20 00:30:04;;;;;;;2.57;1.40;;;12.50;99.90;;;;;;5075461;28;20197;-47
2021/09/20 00:32:31;;;;;;;4.83;1.80;;;12.40;99.90;;;;;;5060026;28;20929;-52
2021/09/20 00:34:59;;;;;;;1.97;1.40;;;12.40;99.90;;;;;;5067814;28;20213;-52
2021/09/20 00:37:27;;;;;;;4.33;1.50;;;12.40;99.90;;;;;;5059481;28;20222;-57
2021/09/20 00:39:53;;;;;;;3.03;1.90;;;12.40;99.90;;;;;;5064710;28;20203;-50
2021/09/20 00:42:20;;;;;;;2.00;1.80;;;12.50;99.90;;;;;;5062797;28;20214;-57
2021/09/20 00:44:47;;;;;;;2.10;1.60;;;12.50;99.90;;;;;;5063461;28;20199;-51
2021/09/20 00:47:13;;;;;;;1.70;1.43;;;12.50;99.90;;;;;;5052961;28;20616;-58
2021/09/20 00:49:40;;;;;;;2.90;1.70;;;12.40;99.90;;;;;;5065689;28;20210;-51
2021/09/20 00:52:08;;;;;;;1.80;1.47;;;12.40;99.90;;;;;;5064712;28;20214;-48
2021/09/20 00:54:34;;;;;;;1.70;1.60;;;12.40;99.90;;;;;;5055902;28;20780;-52
2021/09/20 00:57:02;;;;;;;4.17;1.90;;;12.40;99.90;;;;;;5064629;28;20230;-51
2021/09/20 00:59:29;;;;;;;2.47;1.50;;;12.40;99.90;;;;;;5062300;28;20194;-51
2021/09/20 01:01:56;;;;;;;1.87;1.50;;;12.30;99.90;;;;;;5083939;28;20205;-52
2021/09/20 01:04:23;;;;;;;2.77;1.77;;;12.30;99.90;;;;;;5050916;28;20206;-58
2021/09/20 01:06:50;;;;;;;2.10;1.90;;;12.30;99.90;;;;;;5063541;28;20230;-49
2021/09/20 01:09:18;;;;;;;2.43;1.53;;;12.30;99.90;;;;;;5058069;28;20668;-56
2021/09/20 01:11:45;;;;;;;1.70;1.60;;;12.30;99.90;;;;;;5062635;28;20190;-49
2021/09/20 01:14:12;;;;;;;3.87;1.50;;;12.30;99.90;;;;;;5064004;28;20233;-56
2021/09/20 01:16:39;;;;;;;2.00;1.13;;;12.30;99.90;;;;;;5061195;28;20210;-51
2021/09/20 01:19:05;;;;;;;3.00;1.50;;;12.30;99.90;;;;;;5053384;28;20610;-47
2021/09/20 01:21:32;;;;;;;1.73;1.37;;;12.30;99.90;;;;;;5056247;28;20186;-56
2021/09/20 01:24:00;;;;;;;1.50;1.40;;;12.30;99.90;;;;;;5065347;28;20659;-56
2021/09/20 01:26:26;;;;;;;1.53;1.43;;;12.20;99.90;;;;;;5083249;28;20898;-53
2021/09/20 01:28:53;;;;;;;1.60;1.50;;;12.20;99.90;;;;;;5072873;28;20203;-52
2021/09/20 01:31:20;;;;;;;2.60;1.40;;;12.30;99.90;;;;;;5071050;28;20199;-51
2021/09/20 01:33:47;;;;;;;3.40;1.90;;;12.20;99.90;;;;;;5044939;28;20372;-52
2021/09/20 01:36:14;;;;;;;2.97;1.70;;;12.20;99.90;;;;;;5063083;28;20218;-52
2021/09/20 01:38:40;;;;;;;1.97;1.40;;;12.20;99.90;;;;;;5066725;28;20860;-48
2021/09/20 01:41:08;;;;;;;2.83;1.50;;;12.20;99.90;;;;;;5065345;28;20574;-54
2021/09/20 01:43:35;;;;;;;1.80;1.50;;;12.20;99.90;;;;;;5053373;28;20202;-53
2021/09/20 01:46:02;;;;;;;1.50;1.40;;;12.20;99.90;;;;;;5057582;28;20209;-48
2021/09/20 01:48:28;;;;;;;1.83;1.73;;;12.10;99.90;;;;;;5038857;28;20199;-54
2021/09/20 01:50:55;;;;;;;2.83;1.80;;;12.10;99.90;;;;;;5061201;28;20198;-51
2021/09/20 01:53:22;;;;;;;2.67;1.70;;;12.20;99.90;;;;;;5080661;28;20229;-51
2021/09/20 01:55:48;;;;;;;4.37;1.53;;;12.10;99.90;;;;;;5072211;28;20214;-53
2021/09/20 01:58:16;;;;;;;2.33;1.57;;;12.10;99.90;;;;;;5062377;28;20245;-56
2021/09/20 02:00:45;;;;;;;3.33;1.60;;;12.10;99.90;;;;;;5061281;28;20190;-50
2021/09/20 02:03:13;;;;;;;4.10;1.97;;;12.10;99.90;;;;;;5082272;28;20198;-51
2021/09/20 02:05:40;;;;;;;1.83;1.57;;;12.10;99.90;;;;;;5057793;28;20210;-52
2021/09/20 02:08:07;;;;;;;2.27;1.60;;;12.10;99.90;;;;;;5063900;28;20218;-50
2021/09/20 02:10:34;;;;;;;1.97;1.50;;;12.10;99.90;;;;;;5060181;28;20202;-52
2021/09/20 02:13:00;;;;;;;1.60;1.50;;;12.10;99.90;;;;;;5063879;28;20218;-54
2021/09/20 02:15:28;;;;;;;1.63;1.50;;;12.10;99.90;;;;;;5062918;28;20199;-49
2021/09/20 02:17:56;;;;;;;3.37;1.50;;;12.10;99.90;;;;;;5080086;28;20224;-56
2021/09/20 02:20:23;;;;;;;6.70;1.70;;;12.10;99.90;;;;;;5059160;28;20275;-49
2021/09/20 02:22:49;;;;;;;1.87;1.57;;;12.00;99.90;;;;;;5065646;28;20193;-53
2021/09/20 02:25:16;;;;;;;3.30;1.70;;;12.10;99.90;;;;;;5065017;28;20198;-53
2021/09/20 02:27:42;;;;;;;3.40;1.80;;;12.10;99.90;;;;;;5060328;28;20214;-54
2021/09/20 02:30:10;;;;;;;4.17;2.10;;;12.20;99.90;;;;;;5065981;28;20203;-55
2021/09/20 02:32:39;;;;;;;3.27;1.73;;;12.20;99.90;;;;;;5062749;28;20218;-55
2021/09/20 02:35:06;;;;;;;2.87;1.90;;;12.20;99.90;;;;;;5066075;28;20203;-57
2021/09/20 02:37:33;;;;;;;2.37;1.43;;;12.10;99.90;;;;;;5052398;28;20213;-53
2021/09/20 02:39:59;;;;;;;2.43;2.00;;;12.00;99.90;;;;;;5069057;28;20202;-51
2021/09/20 02:42:26;;;;;;;2.17;1.63;;;12.00;99.90;;;;;;5055210;28;20199;-55
2021/09/20 02:44:53;;;;;;;2.77;1.90;;;12.10;99.90;;;;;;5063082;28;20214;-51
2021/09/20 02:47:19;;;;;;;2.50;1.90;;;12.10;99.90;;;;;;5061466;28;20226;-55
2021/09/20 02:49:47;;;;;;;2.80;2.10;;;12.10;99.90;;;;;;5061374;28;20205;-50
2021/09/20 02:52:14;;;;;;;1.93;1.80;;;12.10;99.90;;;;;;5047146;28;20199;-54
2021/09/20 02:54:40;;;;;;;2.17;1.70;;;12.00;99.90;;;;;;5063606;28;20214;-49
2021/09/20 02:57:07;;;;;;;5.20;1.90;;;12.00;99.90;;;;;;5061666;28;20222;-51
2021/09/20 02:59:34;;;;;;;1.90;1.80;;;12.00;99.90;;;;;;5062520;28;20299;-53
2021/09/20 03:02:00;;;;;;;2.07;1.97;;;12.00;99.90;;;;;;5066951;28;20206;-50
2021/09/20 03:04:27;;;;;;;2.20;2.00;;;12.00;99.90;;;;;;5063281;28;20206;-55
2021/09/20 03:06:55;;;;;;;5.03;1.93;;;12.00;99.90;;;;;;5051072;28;20214;-49
2021/09/20 03:09:21;;;;;;;2.77;1.70;;;12.00;99.90;;;;;;5074337;28;20197;-51
2021/09/20 03:11:48;;;;;;;2.10;1.97;;;12.00;99.90;;;;;;5068152;28;20217;-51
2021/09/20 03:14:15;;;;;;;2.30;1.80;;;12.00;99.90;;;;;;5060684;28;20222;-50
2021/09/20 03:16:42;;;;;;;2.80;2.00;;;12.00;99.90;;;;;;5063871;28;20866;-54
2021/09/20 03:19:08;;;;;;;3.60;2.07;;;11.90;99.90;;;;;;5068537;28;20203;-55
2021/09/20 03:21:35;;;;;;;2.00;1.80;;;11.90;99.90;;;;;;5065462;28;20207;-55
2021/09/20 03:24:03;;;;;;;4.60;2.70;;;12.00;99.90;;;;;;5053976;28;20214;-56
2021/09/20 03:26:30;;;;;;;2.20;2.00;;;11.90;99.90;;;;;;5065233;28;20280;-53
2021/09/20 03:28:57;;;;;;;3.20;2.00;;;11.90;99.90;;;;;;5064230;28;20209;-55
2021/09/20 03:31:23;;;;;;;2.83;2.43;;;11.90;99.90;;;;;;5084021;28;20209;-50
2021/09/20 03:33:50;;;;;;;4.17;1.80;;;11.90;99.90;;;;;;5070879;28;20582;-50
2021/09/20 03:36:17;;;;;;;3.53;2.47;;;11.90;99.90;;;;;;5063542;28;20561;-58
2021/09/20 03:38:43;;;;;;;2.27;2.00;;;11.90;99.90;;;;;;5048467;28;21171;-46
2021/09/20 03:41:11;;;;;;;1.80;1.70;;;11.90;99.90;;;;;;5065939;28;20206;-55
2021/09/20 03:43:38;;;;;;;3.97;2.30;;;11.90;99.90;;;;;;5073104;28;20186;-47
2021/09/20 03:46:05;;;;;;;2.50;2.10;;;11.90;99.90;;;;;;5066638;28;20221;-53
2021/09/20 03:48:32;;;;;;;2.80;2.30;;;11.90;99.90;;;;;;5064712;28;20199;-50
2021/09/20 03:50:59;;;;;;;3.93;2.27;;;11.90;99.90;;;;;;5068997;28;20203;-51
2021/09/20 03:53:25;;;;;;;2.70;2.43;;;11.90;99.90;;;;;;5066236;28;20222;-48
2021/09/20 03:55:52;;;;;;;2.90;2.50;;;11.90;99.90;;;;;;5053043;28;20211;-55
2021/09/20 03:58:20;;;;;;;3.47;2.60;;;11.90;99.90;;;;;;5066382;28;20226;-49
2021/09/20 04:00:47;;;;;;;4.63;1.93;;;11.90;99.90;;;;;;5054237;28;20217;-55
2021/09/20 04:03:13;;;;;;;3.00;1.80;;;11.90;99.90;;;;;;5072729;28;20270;-49
2021/09/20 04:05:40;;;;;;;2.20;2.00;;;11.90;99.90;;;;;;5064751;28;20203;-51
2021/09/20 04:08:08;;;;;;;4.17;2.10;;;11.90;99.90;;;;;;5063881;28;20226;-53
2021/09/20 04:10:35;;;;;;;2.43;2.20;;;11.90;99.90;;;;;;5053616;28;20214;-55
2021/09/20 04:13:01;;;;;;;2.30;2.10;;;11.90;99.90;;;;;;5074931;28;20199;-52
2021/09/20 04:15:29;;;;;;;2.00;1.70;;;11.90;99.90;;;;;;5059057;28;20209;-55
2021/09/20 04:17:56;;;;;;;3.23;2.20;;;11.90;99.90;;;;;;5062045;28;20222;-49
2021/09/20 04:20:22;;;;;;;2.53;2.20;;;11.90;99.90;;;;;;5062775;28;20202;-53
2021/09/20 04:22:49;;;;;;;3.90;1.97;;;11.90;99.90;;;;;;5058998;28;20206;-53
2021/09/20 04:25:16;;;;;;;2.00;1.90;;;11.90;99.90;;;;;;5064261;28;20217;-54
2021/09/20 04:27:43;;;;;;;5.07;2.10;;;11.90;99.90;;;;;;5048365;28;20225;-53
2021/09/20 04:30:11;;;;;;;3.03;2.10;;;11.90;99.90;;;;;;5064721;28;20274;-50
2021/09/20 04:32:39;;;;;;;2.80;1.93;;;11.90;99.90;;;;;;5056573;28;20207;-49
2021/09/20 04:35:07;;;;;;;2.17;1.97;;;11.90;99.90;;;;;;5064906;28;20237;-49
2021/09/20 04:37:34;;;;;;;3.90;2.20;;;11.90;99.90;;;;;;5061091;28;20214;-50
2021/09/20 04:40:00;;;;;;;3.77;1.90;;;11.90;99.90;;;;;;5068155;28;20217;-51
2021/09/20 04:42:27;;;;;;;2.80;2.00;;;11.90;99.90;;;;;;5048390;28;20680;-50
2021/09/20 04:44:54;;;;;;;2.33;2.13;;;11.80;99.90;;;;;;5076262;28;20202;-49
2021/09/20 04:47:20;;;;;;;2.13;1.93;;;11.90;99.90;;;;;;5079301;28;20214;-53
2021/09/20 04:49:48;;;;;;;3.30;2.10;;;11.90;99.90;;;;;;5076012;28;20206;-53
2021/09/20 04:52:15;;;;;;;3.43;1.90;;;11.90;99.90;;;;;;5083450;28;20546;-51
2021/09/20 04:54:42;;;;;;;2.00;1.80;;;11.90;99.90;;;;;;5072767;28;20225;-51
2021/09/20 04:57:08;;;;;;;2.17;1.80;;;11.90;99.90;;;;;;5063959;28;20739;-53
2021/09/20 04:59:35;;;;;;;4.53;2.37;;;11.90;99.90;;;;;;5040351;28;20668;-50
2021/09/20 05:02:01;;;;;;;4.37;2.10;;;11.80;99.90;;;;;;5062256;28;20206;-52
2021/09/20 05:04:28;;;;;;;2.33;1.63;;;11.80;99.90;;;;;;5059005;28;20265;-49
2021/09/20 05:06:56;;;;;;;3.63;3.13;;;11.80;99.90;;;;;;5062555;28;20218;-54
2021/09/20 05:09:23;;;;;;;8.00;2.40;;;11.80;99.90;;;;;;5051196;28;20230;-53
2021/09/20 05:11:49;;;;;;;4.13;1.53;;;11.80;99.90;;;;;;5057037;28;20204;-53
2021/09/20 05:14:16;;;;;;;2.60;2.03;;;11.80;99.90;;;;;;5051834;28;20222;-51
2021/09/20 05:16:42;;;;;;;3.50;1.80;;;11.80;99.90;;;;;;5056340;28;20215;-47
2021/09/20 05:19:09;;;;;;;4.90;2.03;;;11.80;99.90;;;;;;5057053;28;20256;-53
2021/09/20 05:21:35;;;;;;;4.70;2.30;;;11.80;99.90;;;;;;5064801;28;20914;-51
2021/09/20 05:24:04;;;;;;;2.97;2.40;;;11.80;99.90;;;;;;5078358;28;20201;-52
2021/09/20 05:26:30;;;;;;;2.97;1.80;;;11.80;99.90;;;;;;5056789;28;20249;-53
2021/09/20 05:28:57;;;;;;;3.77;2.13;;;11.80;99.90;;;;;;5050803;28;20217;-51
2021/09/20 05:31:24;;;;;;;9.20;2.50;;;11.80;99.90;;;;;;5063434;28;20215;-51
2021/09/20 05:33:50;;;;;;;3.57;2.30;;;11.80;99.90;;;;;;5058381;28;20784;-54
2021/09/20 05:36:17;;;;;;;2.17;1.93;;;11.80;99.90;;;;;;5065714;28;20203;-53
2021/09/20 05:38:43;;;;;;;6.70;3.13;;;11.90;99.90;;;;;;5069864;28;20187;-55
2021/09/20 05:41:11;;;;;;;2.93;2.00;;;11.80;99.90;;;;;;5061529;28;20214;-55
2021/09/20 05:43:38;;;;;;;4.30;2.40;;;11.90;99.90;;;;;;5042974;28;20206;-51
2021/09/20 05:46:05;;;;;;;7.77;2.50;;;11.90;99.90;;;;;;5063228;28;20209;-51
2021/09/20 05:48:31;;;;;;;5.73;2.27;;;11.80;99.90;;;;;;5070541;28;20667;-58
2021/09/20 05:50:58;;;;;;;7.20;2.73;;;11.90;99.90;;;;;;5065287;28;20202;-52
2021/09/20 05:53:25;;;;;;;9.43;1.90;;;11.90;99.90;;;;;;5065369;28;20666;-58
2021/09/20 05:55:51;;;;;;;11.47;3.17;;;11.90;99.90;;;;;;5067660;28;20357;-45
2021/09/20 05:58:19;;;;;;;7.73;2.47;;;11.80;99.90;;;;;;5056638;28;20609;-58
2021/09/20 06:00:46;;;;;;;8.00;2.97;;;11.90;99.90;;;;;;5056993;28;20265;-51
2021/09/20 06:03:13;;;;;;;6.50;2.63;;;11.90;99.90;;;;;;5063953;28;20212;-56
2021/09/20 06:05:40;;;;;;;5.53;2.50;;;12.00;99.90;;;;;;5065082;28;20285;-50
2021/09/20 06:08:08;;;;;;;6.67;2.47;;;12.00;99.90;;;;;;5054897;28;20276;-49
2021/09/20 06:10:37;;;;;;;9.23;2.50;;;12.00;99.90;;;;;;5053855;28;20265;-51
2021/09/20 06:13:06;;;;;;;5.13;2.37;;;12.00;99.90;;;;;;5057597;28;20198;-46
2021/09/20 06:15:34;;;;;;;5.77;2.57;;;12.00;99.90;;;;;;5045199;28;20214;-51
2021/09/20 06:18:01;;;;;;;3.77;2.20;;;12.00;99.90;;;;;;5058337;28;20230;-47
2021/09/20 06:20:28;;;;;;;10.47;2.33;;;12.00;99.90;;;;;;5053019;28;20195;-54
2021/09/20 06:22:55;;;;;;;5.27;2.00;;;12.00;99.90;;;;;;5056484;28;20207;-48
2021/09/20 06:25:23;;;;;;;4.67;2.30;;;12.10;99.90;;;;;;5060036;28;20206;-53
2021/09/20 06:27:50;;;;;;;4.37;2.13;;;12.10;99.90;;;;;;5046041;28;20359;-50
2021/09/20 06:30:16;;;;;;;4.97;3.10;;;12.10;99.90;;;;;;5065407;28;20202;-55
2021/09/20 06:32:45;;;;;;;3.03;2.00;;;12.10;99.90;;;;;;5047224;28;20269;-51
2021/09/20 06:35:13;;;;;;;2.93;2.60;;;12.10;99.90;;;;;;5065847;28;20222;-50
2021/09/20 06:37:41;;;;;;;3.43;2.40;;;12.10;99.90;;;;;;5059145;28;20221;-51
2021/09/20 06:40:09;;;;;;;2.60;2.40;;;12.10;99.90;;;;;;5076132;28;20206;-52
2021/09/20 06:42:36;;;;;;;2.47;2.27;;;12.10;99.90;;;;;;5074078;28;20186;-50
2021/09/20 06:45:04;;;;;;;2.53;2.33;;;12.20;99.90;;;;;;5079529;28;20205;-52
2021/09/20 06:47:30;;;;;;;2.60;2.40;;;12.20;99.90;;;;;;5052445;28;20214;-51
2021/09/20 06:49:58;;;;;;;8.63;2.63;;;12.20;99.90;;;;;;5078948;28;20206;-50
2021/09/20 06:52:25;;;;;;;3.27;2.70;;;12.20;99.90;;;;;;5061350;28;20203;-49
2021/09/20 06:54:52;;;;;;;4.47;2.40;;;12.20;99.90;;;;;;5057089;28;20281;-51
2021/09/20 06:57:18;;;;;;;2.73;2.33;;;12.30;99.90;;;;;;5066815;28;20219;-51
2021/09/20 06:59:45;;;;;;;3.73;2.33;;;12.30;99.90;;;;;;5052173;28;20214;-53
2021/09/20 07:02:11;;;;;;;2.87;2.40;;;12.30;99.90;;;;;;5043680;28;20222;-50
2021/09/20 07:04:38;;;;;;;2.50;2.30;;;12.30;99.90;;;;;;5063612;28;20195;-53
2021/09/20 07:07:06;;;;;;;3.13;2.57;;;12.30;99.90;;;;;;5057072;28;20396;-51
2021/09/20 07:09:33;;;;;;;5.17;2.63;;;12.30;99.90;;;;;;5056180;28;20202;-56
2021/09/20 07:11:59;;;;;;;2.60;2.40;;;12.40;99.90;;;;;;5073460;28;20201;-54
2021/09/20 07:14:26;;;;;;;2.87;2.30;;;12.40;99.90;;;;;;5050166;28;20214;-48
2021/09/20 07:16:54;;;;;;;3.40;2.47;;;12.40;99.90;;;;;;5053085;28;20307;-50
2021/09/20 07:19:21;;;;;;;3.23;2.63;;;12.40;99.90;;;;;;5067442;28;20195;-53
2021/09/20 07:21:47;;;;;;;4.60;2.50;;;12.50;99.90;;;;;;5059326;28;20993;-50
2021/09/20 07:24:15;;;;;;;3.00;2.70;;;12.50;99.90;;;;;;5058413;28;20214;-53
2021/09/20 07:26:42;;;;;;;5.13;3.33;;;12.50;99.90;;;;;;5071530;28;20977;-47
2021/09/20 07:29:09;;;;;;;6.43;2.63;;;12.60;99.90;;;;;;5057625;28;20198;-51
2021/09/20 07:31:36;;;;;;;4.60;2.50;;;12.60;99.90;;;;;;5038553;28;20206;-48
2021/09/20 07:34:02;;;;;;;7.93;2.57;;;12.60;99.90;;;;;;5061522;28;20202;-50
2021/09/20 07:36:29;;;;;;;4.97;2.40;;;12.60;99.90;;;;;;5057239;28;20215;-55
2021/09/20 07:38:56;;;;;;;8.17;2.60;;;12.70;99.90;;;;;;5053055;28;20207;-54
2021/09/20 07:41:24;;;;;;;6.10;2.93;;;12.70;99.90;;;;;;5067622;28;20209;-47
2021/09/20 07:43:51;;;;;;;5.50;3.03;;;12.70;99.90;;;;;;5070927;28;20199;-54
2021/09/20 07:46:22;;;;;;;2.60;2.40;;;12.70;99.90;;;;;;5056578;28;20191;-48
2021/09/20 07:48:48;;;;;;;3.07;2.43;;;12.70;99.90;;;;;;5062616;28;21005;-55
2021/09/20 07:51:16;;;;;;;2.67;2.47;;;12.70;99.90;;;;;;5066807;28;20206;-52
2021/09/20 07:53:43;;;;;;;2.53;2.33;;;12.70;99.90;;;;;;5055465;28;20487;-53
2021/09/20 07:56:10;;;;;;;4.80;2.27;;;12.70;99.90;;;;;;5080596;28;20230;-52
2021/09/20 07:58:39;;;;;;;4.10;2.63;;;12.80;99.90;;;;;;5063982;28;20199;-48
2021/09/20 08:01:05;;;;;;;4.30;2.37;;;12.80;99.90;;;;;;5057216;28;20201;-51
2021/09/20 08:03:32;;;;;;;5.10;2.40;;;12.80;99.90;;;;;;5042876;28;20394;-55
2021/09/20 08:05:59;;;;;;;3.03;2.83;;;12.90;99.90;;;;;;5065715;28;20210;-50
2021/09/20 08:08:26;;;;;;;4.70;2.80;;;12.90;99.90;;;;;;5052174;28;20203;-55
2021/09/20 08:10:53;;;;;;;4.07;2.80;;;12.90;99.90;;;;;;5072782;28;20202;-51
2021/09/20 08:13:20;;;;;;;4.07;2.73;;;12.90;99.90;;;;;;5076112;28;20189;-51
2021/09/20 08:15:48;;;;;;;2.83;2.63;;;13.00;99.90;;;;;;5078761;28;20210;-51
2021/09/20 08:18:16;;;;;;;2.53;2.33;;;13.10;99.90;;;;;;5041384;28;20230;-54
2021/09/20 08:20:44;;;;;;;4.20;2.37;;;13.10;99.90;;;;;;5058131;28;20186;-49
2021/09/20 08:23:12;;;;;;;3.90;2.70;;;13.10;99.90;;;;;;5065436;28;20199;-53
2021/09/20 08:25:39;;;;;;;3.63;2.70;;;13.20;99.90;;;;;;5056086;28;20194;-54
2021/09/20 08:28:06;;;;;;;2.57;2.37;;;13.20;99.90;;;;;;5070751;28;20230;-52
2021/09/20 08:30:33;;;;;;;2.97;2.60;;;13.30;99.90;;;;;;5057145;28;20198;-50
2021/09/20 08:33:01;;;;;;;3.57;2.67;;;13.30;99.90;;;;;;5060741;28;20694;-52
2021/09/20 08:35:28;;;;;;;5.60;2.70;;;13.40;99.90;;;;;;5049095;28;20938;-52
2021/09/20 08:37:55;;;;;;;2.60;2.40;;;13.40;99.90;;;;;;5065866;28;20230;-54
2021/09/20 08:40:22;;;;;;;2.63;2.43;;;13.40;99.90;;;;;;5058255;28;20199;-52
2021/09/20 08:42:49;;;;;;;2.70;2.50;;;13.40;99.90;;;;;;5063552;28;20668;-52
2021/09/20 08:45:18;;;;;;;3.33;2.57;;;13.50;99.90;;;;;;5065534;28;20205;-51
2021/09/20 08:47:48;;;;;;;4.20;2.13;;;13.50;99.90;;;;;;5059181;28;20233;-52
2021/09/20 08:50:19;;;;;;;3.80;2.30;;;13.40;99.90;;;;;;5042904;28;20203;-52
2021/09/20 08:52:46;;;;;;;3.03;2.40;;;13.40;99.90;;;;;;5076737;28;20456;-51
2021/09/20 08:55:13;;;;;;;2.47;2.27;;;13.40;99.90;;;;;;5074924;28;20768;-55
2021/09/20 08:57:40;;;;;;;4.90;2.47;;;13.50;99.90;;;;;;5054343;28;20218;-53
2021/09/20 09:00:09;;;;;;;2.83;2.53;;;13.50;99.90;;;;;;5061481;28;20195;-52
2021/09/20 09:02:36;;;;;;;2.80;2.60;;;13.50;99.90;;;;;;5071139;28;20186;-50
2021/09/20 09:05:14;;;;;;;6.90;2.53;;;13.60;99.90;;;;;;5047655;28;20571;-47
2021/09/20 09:07:43;;;;;;;2.63;2.43;;;13.60;99.90;;;;;;5069613;28;20950;-48
2021/09/20 09:10:11;;;;;;;2.73;2.37;;;13.60;99.90;;;;;;5058440;28;20598;-53
2021/09/20 09:12:38;;;;;;;2.90;2.20;;;13.60;99.90;;;;;;5066855;28;20336;-54
2021/09/20 09:15:08;;;;;;;4.60;2.20;;;13.70;99.90;;;;;;5072860;28;20292;-52
2021/09/20 09:17:37;;;;;;;2.33;2.13;;;13.70;99.90;;;;;;5073269;28;20210;-47
2021/09/20 09:20:06;;;;;;;5.27;2.43;;;13.70;99.90;;;;;;5053539;28;20210;-52
2021/09/20 09:22:47;;;;;;;3.33;2.13;;;13.70;99.90;;;;;;5058312;28;20218;-49
2021/09/20 09:25:17;;;;;;;2.73;2.20;;;13.70;99.90;;;;;;5067362;28;20281;-58
2021/09/20 09:27:44;;;;;;;3.50;2.40;;;13.70;99.90;;;;;;5055555;28;20222;-45
2021/09/20 09:30:16;;;;;;;2.80;1.97;;;13.70;99.90;;;;;;5066924;28;20218;-57
2021/09/20 09:32:44;;;;;;;2.37;1.97;;;13.70;99.90;;;;;;5065985;28;20190;-50
2021/09/20 09:35:13;;;;;;;4.60;1.80;;;13.80;99.90;;;;;;5053779;28;20211;-56
2021/09/20 09:37:41;;;;;;;4.23;2.43;;;13.80;99.90;;;;;;5060085;28;20946;-46
2021/09/20 09:40:29;;;;;;;4.10;2.07;;;13.90;99.90;;;;;;5070958;28;20187;-56
2021/09/20 09:42:59;;;;;;;2.37;1.90;;;13.90;99.90;;;;;;5067550;28;20203;-54
2021/09/20 09:45:30;;;;;;;2.77;2.07;;;13.90;99.90;;;;;;5062191;28;20190;-59
2021/09/20 09:48:19;;;;;;;2.93;2.20;;;14.00;99.90;;;;;;5076584;28;20706;-48
2021/09/20 09:50:49;;;;;;;2.63;2.43;;;14.00;99.90;;;;;;5039606;28;20227;-51
2021/09/20 09:53:27;;;;;;;2.37;2.10;;;14.00;99.90;;;;;;5063257;28;20662;-56
2021/09/20 09:55:58;;;;;;;3.10;2.73;;;14.00;99.90;;;;;;5062117;28;20218;-47
2021/09/20 09:58:26;;;;;;;2.23;2.07;;;14.00;99.90;;;;;;5057852;28;20222;-58
2021/09/20 10:01:10;;;;;;;3.07;2.47;;;14.10;99.90;;;;;;5067940;28;20198;-46
2021/09/20 10:04:05;;;;;;;2.40;2.20;;;14.10;99.90;;;;;;5066405;28;20911;-47
2021/09/20 10:06:45;;;;;;;2.83;2.53;;;14.10;99.90;;;;;;5046332;28;20210;-53
2021/09/20 10:09:14;;;;;;;2.20;1.83;;;14.20;99.90;;;;;;5064643;28;20195;-53
2021/09/20 10:11:44;;;;;;;2.00;1.70;;;14.20;99.90;;;;;;5062264;28;20285;-51
2021/09/20 10:14:12;;;;;;;5.03;2.07;;;14.30;99.90;;;;;;5064115;28;20209;-52
2021/09/20 10:16:40;;;;;;;3.83;2.43;;;14.40;99.90;;;;;;5079041;28;20292;-51
2021/09/20 10:19:06;;;;;;;3.67;1.90;;;14.40;99.90;;;;;;5062585;28;20221;-52
2021/09/20 10:21:33;;;;;;;3.20;1.97;;;14.40;99.90;;;;;;5052400;28;20211;-55
2021/09/20 10:24:01;;;;;;;2.37;2.17;;;14.50;99.90;;;;;;5066279;28;20218;-47
2021/09/20 10:26:29;;;;;;;2.40;2.00;;;14.50;99.90;;;;;;5056098;28;20215;-52
2021/09/20 10:29:00;;;;;;;3.27;2.30;;;14.50;99.90;;;;;;5067492;28;20218;-55
2021/09/20 10:31:28;;;;;;;2.13;1.93;;;14.40;99.90;;;;;;5059291;28;20572;-52
2021/09/20 10:34:26;;;;;;;2.50;2.20;;;14.40;99.90;;;;;;5066439;28;20686;-55
2021/09/20 10:36:58;;;;;;;4.07;1.80;;;14.50;99.90;;;;;;5060755;28;20227;-48
2021/09/20 10:39:44;;;;;;;4.87;2.27;;;14.50;99.90;;;;;;5043600;28;20203;-57
2021/09/20 10:42:11;;;;;;;3.10;1.60;;;14.50;99.90;;;;;;5055498;28;20202;-58
2021/09/20 10:44:40;;;;;;;4.03;1.97;;;14.60;99.90;;;;;;5053606;28;21037;-46
2021/09/20 10:47:14;;;;;;;3.53;1.73;;;14.50;99.90;;;;;;5062416;28;20213;-59
2021/09/20 10:49:48;;;;;;;4.33;2.00;;;14.60;99.90;;;;;;5072355;28;20190;-52
2021/09/20 10:52:16;;;;;;;2.70;1.87;;;14.70;99.90;;;;;;5052280;28;20202;-59
2021/09/20 10:55:02;;;;;;;3.63;1.90;;;14.80;99.90;;;;;;5054610;28;20198;-48
2021/09/20 10:57:29;;;;;;;2.20;2.00;;;14.90;99.90;;;;;;5051846;28;20911;-47
2021/09/20 11:00:24;;;;;;;3.83;2.10;;;14.90;99.90;;;;;;5053522;28;20668;-49
2021/09/20 11:02:51;;;;;;;4.43;1.97;;;15.00;99.90;;;;;;5068782;28;20209;-46
2021/09/20 11:05:26;;;;;;;3.23;2.20;;;15.00;99.90;;;;;;5062032;28;20202;-52
2021/09/20 11:07:53;;;;;;;3.07;2.43;;;15.10;99.90;;;;;;5059492;28;20727;-53
2021/09/20 11:10:30;;;;;;;4.70;2.20;;;15.10;99.90;;;;;;5046356;28;20215;-50
2021/09/20 11:12:59;;;;;;;2.93;2.07;;;15.00;99.90;;;;;;5059091;28;20210;-57
2021/09/20 11:15:28;;;;;;;4.17;2.17;;;14.90;99.90;;;;;;5059822;28;20255;-52
2021/09/20 11:17:54;;;;;;;5.63;2.37;;;14.80;99.90;;;;;;5074259;28;20222;-46
2021/09/20 11:20:26;;;;;;;2.23;2.03;;;14.80;99.90;;;;;;5065910;28;20186;-51
2021/09/20 11:23:16;;;;;;;2.30;2.03;;;14.80;99.90;;;;;;5061740;28;20218;-49
2021/09/20 11:25:57;;;;;;;3.27;1.90;;;14.80;99.90;;;;;;5069974;28;20202;-48
2021/09/20 11:28:30;;;;;;;2.10;2.00;;;14.70;99.90;;;;;;5059478;28;20202;-52
2021/09/20 11:30:58;;;;;;;2.20;2.00;;;14.70;99.90;;;;;;5051904;28;20210;-52
2021/09/20 11:33:34;;;;;;;4.73;3.20;;;14.70;99.90;;;;;;5070321;28;20217;-52
2021/09/20 11:36:01;;;;;;;4.30;2.23;;;14.70;99.90;;;;;;5072435;28;20221;-50
2021/09/20 11:38:27;;;;;;;3.53;2.00;;;14.70;99.90;;;;;;5063668;28;20675;-54
2021/09/20 11:40:54;;;;;;;3.60;2.53;;;14.70;99.90;;;;;;5059068;28;20214;-51
2021/09/20 11:43:21;;;;;;;3.80;2.23;;;14.70;99.90;;;;;;5064883;28;20203;-50
2021/09/20 11:45:47;;;;;;;2.20;2.00;;;14.80;99.90;;;;;;5058157;28;20939;-50
2021/09/20 11:48:21;;;;;;;2.80;2.20;;;14.80;99.90;;;;;;5064974;28;20226;-52
2021/09/20 11:50:48;;;;;;;5.73;2.17;;;14.80;99.90;;;;;;5050101;28;20207;-53
2021/09/20 11:53:18;;;;;;;2.37;2.17;;;14.80;99.90;;;;;;5071331;28;20199;-53
2021/09/20 11:55:46;;;;;;;3.63;2.30;;;14.70;99.90;;;;;;5043031;28;20226;-51
2021/09/20 11:58:15;;;;;;;2.50;1.97;;;14.80;99.90;;;;;;5053093;28;20652;-53
2021/09/20 12:00:43;;;;;;;2.47;1.97;;;14.80;99.90;;;;;;5059606;28;20209;-52
2021/09/20 12:03:13;;;;;;;2.40;2.10;;;14.80;99.90;;;;;;5060006;28;20203;-52
2021/09/20 12:05:43;;;;;;;3.93;2.10;;;14.80;99.90;;;;;;5057701;28;20284;-53
2021/09/20 12:08:13;;;;;;;2.53;2.33;;;14.80;99.90;;;;;;5061800;28;20252;-49
2021/09/20 12:10:42;;;;;;;2.63;2.23;;;14.70;99.90;;;;;;5052621;28;20209;-51
2021/09/20 12:13:11;;;;;;;3.27;2.00;;;14.70;99.90;;;;;;5071978;28;20196;-54
2021/09/20 12:15:39;;;;;;;3.93;2.10;;;14.80;99.90;;;;;;5063530;28;20198;-49
2021/09/20 12:18:08;;;;;;;3.47;2.43;;;14.80;99.90;;;;;;5070692;28;20245;-49
2021/09/20 12:20:37;;;;;;;2.77;2.17;;;14.80;99.90;;;;;;5063979;28;20672;-52
2021/09/20 12:23:10;;;;;;;2.23;2.00;;;14.90;99.90;;;;;;5060947;28;20202;-53
2021/09/20 12:25:41;;;;;;;4.27;2.40;;;14.80;99.90;;;;;;5056557;28;20207;-54
2021/09/20 12:28:17;;;;;;;2.73;2.40;;;14.90;99.90;;;;;;5059781;28;20704;-50
2021/09/20 12:30:57;;;;;;;1.90;1.80;;;14.90;99.90;;;;;;5058970;28;20190;-52
2021/09/20 12:33:25;;;;;;;1.87;1.77;;;14.90;99.90;;;;;;5058555;28;20194;-52
2021/09/20 12:35:52;;;;;;;3.07;2.13;;;14.80;99.90;;;;;;5055954;28;20210;-50
2021/09/20 12:38:32;;;;;;;2.77;2.17;;;14.80;99.90;;;;;;5055965;28;20219;-54
2021/09/20 12:41:09;;;;;;;3.07;2.00;;;14.90;99.90;;;;;;5069808;28;20691;-50
2021/09/20 12:43:35;;;;;;;3.87;2.00;;;14.80;99.90;;;;;;5054196;28;20201;-49
2021/09/20 12:46:10;;;;;;;2.50;2.30;;;14.80;99.90;;;;;;5061953;28;21255;-54
2021/09/20 12:48:39;;;;;;;3.43;2.37;;;14.80;99.90;;;;;;5061445;28;20194;-50
2021/09/20 12:51:08;;;;;;;3.13;2.13;;;14.90;99.90;;;;;;5061143;28;20209;-50
2021/09/20 12:53:37;;;;;;;2.10;1.80;;;14.90;99.90;;;;;;5061843;28;20211;-51